Time;durP1;ratioP1;P1;durP2;ratioP2;P2;SDS_P1;SDS_P2;PMS_P1;PMS_P2;Temp;Humidity;BMP_temperature;BMP_pressure;BME280_temperature;BME280_humidity;BME280_pressure;Samples;Min_cycle;Max_cycle;Signal;HPM_P1;HPM_P2
2023/12/31 00:01:16;;;;;;;3.28;1.80;;;;;;;;;;6237992;22;20062;-89
2023/12/31 00:03:59;;;;;;;4.80;1.98;;;;;;;;;;6236900;22;20020;-89
2023/12/31 00:06:51;;;;;;;4.30;1.85;;;;;;;;;;6238751;22;20016;-89
2023/12/31 00:09:27;;;;;;;5.18;1.60;;;;;;;;;;6234695;22;20034;-89
2023/12/31 00:12:29;;;;;;;;;;;;;;;;;;;;;
2023/12/31 00:15:05;;;;;;;1.98;1.50;;;;;;;;;;6271485;22;20024;-90
2023/12/31 00:17:37;;;;;;;2.15;1.63;;;;;;;;;;6211378;22;20019;-89
2023/12/31 00:20:03;;;;;;;3.05;1.70;;;;;;;;;;6209022;22;20016;-89
2023/12/31 00:22:30;;;;;;;2.50;1.80;;;;;;;;;;6213471;22;20551;-89
2023/12/31 00:24:56;;;;;;;2.20;1.73;;;;;;;;;;6235630;22;20019;-90
2023/12/31 00:27:22;;;;;;;3.60;1.77;;;;;;;;;;6212199;22;20019;-90
2023/12/31 00:29:48;;;;;;;3.10;1.67;;;;;;;;;;6236235;22;20103;-89
2023/12/31 00:32:15;;;;;;;1.98;1.75;;;;;;;;;;6235846;22;20062;-90
2023/12/31 00:34:46;;;;;;;3.33;1.92;;;;;;;;;;6212247;22;20498;-89
2023/12/31 00:37:12;;;;;;;3.97;1.70;;;;;;;;;;6211464;22;20047;-91
2023/12/31 00:39:38;;;;;;;3.50;1.80;;;;;;;;;;6259592;22;20026;-90
2023/12/31 00:42:06;;;;;;;2.95;1.88;;;;;;;;;;6234382;22;20460;-89
2023/12/31 00:44:34;;;;;;;3.03;1.90;;;;;;;;;;6211990;22;20495;-89
2023/12/31 00:47:07;;;;;;;4.88;2.00;;;;;;;;;;6237340;22;20306;-89
2023/12/31 00:49:35;;;;;;;3.92;1.83;;;;;;;;;;6236696;22;20030;-90
2023/12/31 00:52:04;;;;;;;3.65;2.05;;;;;;;;;;6237003;22;20383;-90
2023/12/31 00:54:30;;;;;;;3.88;2.05;;;;;;;;;;6212094;22;20033;-89
2023/12/31 00:56:56;;;;;;;2.83;2.25;;;;;;;;;;6235422;22;20011;-90
2023/12/31 00:59:22;;;;;;;3.08;1.90;;;;;;;;;;6211797;22;20046;-89
2023/12/31 01:01:54;;;;;;;2.75;1.88;;;;;;;;;;6261665;22;20077;-89
2023/12/31 01:04:29;;;;;;;4.10;1.95;;;;;;;;;;6209676;22;20038;-91
2023/12/31 01:06:55;;;;;;;5.50;2.28;;;;;;;;;;6210496;22;20016;-90
2023/12/31 01:09:22;;;;;;;2.28;2.00;;;;;;;;;;6234861;22;20023;-90
2023/12/31 01:12:04;;;;;;;2.75;2.08;;;;;;;;;;6211101;22;20088;-91
2023/12/31 01:14:30;;;;;;;2.63;2.13;;;;;;;;;;6236139;22;20468;-90
2023/12/31 01:16:56;;;;;;;3.83;2.15;;;;;;;;;;6208965;22;20020;-90
2023/12/31 01:19:22;;;;;;;4.47;2.15;;;;;;;;;;6234882;22;20080;-89
2023/12/31 01:21:49;;;;;;;4.22;1.90;;;;;;;;;;6236044;22;20019;-91
2023/12/31 01:24:15;;;;;;;5.53;2.13;;;;;;;;;;6233822;22;20443;-90
2023/12/31 01:26:41;;;;;;;5.05;2.25;;;;;;;;;;6213163;22;20019;-90
2023/12/31 01:29:07;;;;;;;4.47;2.30;;;;;;;;;;6209720;22;20065;-90
2023/12/31 01:31:33;;;;;;;3.40;2.20;;;;;;;;;;6234947;22;20725;-90
2023/12/31 01:33:59;;;;;;;6.13;2.67;;;;;;;;;;6236216;22;20101;-90
2023/12/31 01:36:25;;;;;;;3.63;2.50;;;;;;;;;;6238016;22;20026;-90
2023/12/31 01:38:51;;;;;;;3.00;2.38;;;;;;;;;;6212021;22;20028;-90
2023/12/31 01:41:17;;;;;;;4.70;2.83;;;;;;;;;;6209943;22;20356;-89
2023/12/31 01:43:43;;;;;;;3.55;2.22;;;;;;;;;;6210765;22;20344;-88
2023/12/31 01:46:10;;;;;;;2.83;2.17;;;;;;;;;;6207935;22;20020;-90
2023/12/31 01:48:36;;;;;;;3.13;2.47;;;;;;;;;;6211878;22;20019;-90
2023/12/31 01:51:02;;;;;;;2.80;2.30;;;;;;;;;;6209201;22;20020;-90
2023/12/31 01:53:28;;;;;;;3.60;1.90;;;;;;;;;;6206674;22;20440;-89
2023/12/31 01:55:54;;;;;;;4.57;2.38;;;;;;;;;;6209791;22;20068;-90
2023/12/31 01:58:20;;;;;;;3.75;2.20;;;;;;;;;;6211187;22;20170;-89
2023/12/31 02:00:46;;;;;;;3.63;2.60;;;;;;;;;;6211377;22;20348;-89
2023/12/31 02:03:13;;;;;;;4.97;2.40;;;;;;;;;;6207361;22;20015;-89
2023/12/31 02:05:39;;;;;;;2.40;2.20;;;;;;;;;;6235822;22;20027;-90
2023/12/31 02:08:05;;;;;;;3.53;1.98;;;;;;;;;;6210174;22;20020;-90
2023/12/31 02:10:31;;;;;;;2.85;2.15;;;;;;;;;;6234718;22;20070;-90
2023/12/31 02:12:57;;;;;;;2.47;1.98;;;;;;;;;;6233721;22;20023;-90
2023/12/31 02:15:32;;;;;;;3.92;2.08;;;;;;;;;;6262306;22;20026;-90
2023/12/31 02:17:59;;;;;;;3.13;1.80;;;;;;;;;;6236320;22;20020;-90
2023/12/31 02:20:26;;;;;;;2.67;2.10;;;;;;;;;;6238272;22;20044;-90
2023/12/31 02:22:52;;;;;;;2.55;1.60;;;;;;;;;;6239287;22;20436;-89
2023/12/31 02:25:19;;;;;;;5.28;2.03;;;;;;;;;;6235067;22;20016;-90
2023/12/31 02:27:45;;;;;;;3.42;2.08;;;;;;;;;;6239952;22;20038;-90
2023/12/31 02:30:11;;;;;;;3.17;1.90;;;;;;;;;;6210640;22;20443;-89
2023/12/31 02:32:37;;;;;;;2.10;1.55;;;;;;;;;;6239000;22;20054;-90
2023/12/31 02:35:04;;;;;;;1.77;1.67;;;;;;;;;;6210146;22;20030;-90
2023/12/31 02:37:30;;;;;;;2.85;1.50;;;;;;;;;;6214759;22;20027;-88
2023/12/31 02:39:56;;;;;;;2.08;1.67;;;;;;;;;;6211065;22;20015;-90
2023/12/31 02:42:22;;;;;;;2.15;1.55;;;;;;;;;;6238517;22;20024;-90
2023/12/31 02:44:48;;;;;;;2.08;1.40;;;;;;;;;;6236754;22;20419;-90
2023/12/31 02:47:14;;;;;;;3.15;1.60;;;;;;;;;;6210126;22;20027;-90
2023/12/31 02:49:40;;;;;;;1.73;1.60;;;;;;;;;;6238172;22;20085;-90
2023/12/31 02:52:06;;;;;;;2.20;1.40;;;;;;;;;;6208374;22;20492;-89
2023/12/31 02:54:32;;;;;;;2.08;1.20;;;;;;;;;;6212094;22;20356;-89
2023/12/31 02:56:58;;;;;;;1.70;1.20;;;;;;;;;;6236530;22;20022;-90
2023/12/31 02:59:24;;;;;;;3.30;1.50;;;;;;;;;;6239519;22;20118;-89
2023/12/31 03:01:51;;;;;;;3.63;1.58;;;;;;;;;;6236497;22;20141;-90
2023/12/31 03:04:17;;;;;;;1.13;1.02;;;;;;;;;;6234489;22;20105;-90
2023/12/31 03:06:43;;;;;;;1.80;1.30;;;;;;;;;;6214494;22;20444;-90
2023/12/31 03:09:09;;;;;;;3.60;1.40;;;;;;;;;;6233791;22;20077;-90
2023/12/31 03:11:36;;;;;;;1.38;1.27;;;;;;;;;;6212696;22;20019;-90
2023/12/31 03:14:02;;;;;;;4.65;1.58;;;;;;;;;;6235331;22;20024;-90
2023/12/31 03:16:28;;;;;;;1.85;1.48;;;;;;;;;;6238272;22;20022;-89
2023/12/31 03:18:54;;;;;;;1.33;1.23;;;;;;;;;;6213329;22;20019;-90
2023/12/31 03:21:20;;;;;;;1.50;1.40;;;;;;;;;;6211675;22;20043;-90
2023/12/31 03:23:46;;;;;;;1.75;1.33;;;;;;;;;;6210301;22;20507;-90
2023/12/31 03:26:12;;;;;;;4.15;1.63;;;;;;;;;;6209871;22;20091;-90
2023/12/31 03:28:38;;;;;;;3.97;1.60;;;;;;;;;;6212848;22;20097;-90
2023/12/31 03:31:04;;;;;;;1.50;1.40;;;;;;;;;;6209215;22;20882;-90
2023/12/31 03:33:31;;;;;;;2.47;1.70;;;;;;;;;;6237005;22;20027;-90
2023/12/31 03:35:57;;;;;;;5.10;1.50;;;;;;;;;;6235154;22;20165;-90
2023/12/31 03:38:23;;;;;;;1.88;1.38;;;;;;;;;;6213353;22;20098;-89
2023/12/31 03:40:49;;;;;;;2.42;1.40;;;;;;;;;;6213257;22;20024;-89
2023/12/31 03:43:15;;;;;;;1.38;1.10;;;;;;;;;;6211103;22;20030;-90
2023/12/31 03:45:41;;;;;;;4.18;1.40;;;;;;;;;;6235400;22;20026;-90
2023/12/31 03:48:07;;;;;;;1.88;1.48;;;;;;;;;;6209775;22;20054;-90
2023/12/31 03:50:33;;;;;;;1.90;1.27;;;;;;;;;;6213144;22;20024;-90
2023/12/31 03:52:59;;;;;;;2.40;1.70;;;;;;;;;;6210825;22;20019;-90
2023/12/31 03:55:25;;;;;;;2.42;1.67;;;;;;;;;;6211844;22;20019;-90
2023/12/31 03:57:51;;;;;;;2.20;1.58;;;;;;;;;;6238502;22;20035;-90
2023/12/31 04:00:17;;;;;;;2.65;1.83;;;;;;;;;;6259795;22;20050;-89
2023/12/31 04:02:43;;;;;;;2.83;1.58;;;;;;;;;;6212778;22;20098;-90
2023/12/31 04:05:10;;;;;;;3.38;1.92;;;;;;;;;;6210958;22;20054;-90
2023/12/31 04:07:36;;;;;;;1.92;1.60;;;;;;;;;;6268771;22;20020;-89
2023/12/31 04:10:02;;;;;;;2.88;1.70;;;;;;;;;;6236308;22;20019;-90
2023/12/31 04:12:28;;;;;;;3.75;1.80;;;;;;;;;;6237246;22;20377;-89
2023/12/31 04:14:54;;;;;;;1.65;1.50;;;;;;;;;;6237771;22;20054;-89
2023/12/31 04:17:20;;;;;;;1.67;1.58;;;;;;;;;;6210960;22;20016;-89
2023/12/31 04:19:46;;;;;;;1.60;1.30;;;;;;;;;;6237818;22;20073;-89
2023/12/31 04:22:12;;;;;;;3.53;1.50;;;;;;;;;;6235854;22;20050;-90
2023/12/31 04:24:39;;;;;;;3.17;1.60;;;;;;;;;;6236604;22;20095;-90
2023/12/31 04:27:05;;;;;;;1.73;1.60;;;;;;;;;;6235747;22;20011;-90
2023/12/31 04:29:31;;;;;;;2.10;1.70;;;;;;;;;;6238298;22;20107;-89
2023/12/31 04:31:58;;;;;;;2.20;2.00;;;;;;;;;;6210398;22;20432;-90
2023/12/31 04:34:24;;;;;;;2.72;1.80;;;;;;;;;;6236672;22;20023;-89
2023/12/31 04:36:50;;;;;;;2.70;1.67;;;;;;;;;;6209714;22;20019;-90
2023/12/31 04:39:16;;;;;;;2.47;1.50;;;;;;;;;;6204661;22;20058;-90
2023/12/31 04:41:42;;;;;;;1.88;1.60;;;;;;;;;;6184452;23;20027;-89
2023/12/31 04:44:08;;;;;;;3.42;1.83;;;;;;;;;;6156030;23;20020;-89
2023/12/31 04:46:34;;;;;;;2.30;1.55;;;;;;;;;;6182615;23;20137;-89
2023/12/31 04:49:00;;;;;;;1.77;1.67;;;;;;;;;;6153033;23;20428;-90
2023/12/31 04:51:27;;;;;;;3.38;2.20;;;;;;;;;;6156004;23;20023;-89
2023/12/31 04:53:53;;;;;;;2.92;1.90;;;;;;;;;;6156892;23;20666;-89
2023/12/31 04:56:19;;;;;;;2.90;1.75;;;;;;;;;;6155450;23;20012;-90
2023/12/31 04:58:46;;;;;;;2.00;1.63;;;;;;;;;;6156439;23;20436;-90
2023/12/31 05:01:12;;;;;;;2.00;1.80;;;;;;;;;;6154042;23;20024;-89
2023/12/31 05:03:39;;;;;;;2.05;1.80;;;;;;;;;;6183227;23;20344;-89
2023/12/31 05:06:05;;;;;;;2.97;1.83;;;;;;;;;;6155510;23;20516;-90
2023/12/31 05:08:32;;;;;;;3.00;2.03;;;;;;;;;;6155371;23;20026;-90
2023/12/31 05:10:58;;;;;;;4.03;2.22;;;;;;;;;;6178909;23;20143;-89
2023/12/31 05:13:24;;;;;;;2.38;1.42;;;;;;;;;;6180881;23;20409;-89
2023/12/31 05:15:50;;;;;;;2.20;2.00;;;;;;;;;;6182108;23;20028;-89
2023/12/31 05:18:17;;;;;;;5.30;2.38;;;;;;;;;;6181308;23;20023;-90
2023/12/31 05:20:43;;;;;;;2.70;2.00;;;;;;;;;;6158310;23;20016;-89
2023/12/31 05:23:09;;;;;;;3.47;2.17;;;;;;;;;;6155624;23;20015;-89
2023/12/31 05:25:35;;;;;;;2.50;1.70;;;;;;;;;;6180752;23;20077;-89
2023/12/31 05:28:01;;;;;;;2.35;2.15;;;;;;;;;;6179767;23;20047;-90
2023/12/31 05:30:27;;;;;;;3.35;2.72;;;;;;;;;;6156468;23;20024;-90
2023/12/31 05:32:53;;;;;;;3.20;1.90;;;;;;;;;;6182089;23;20016;-89
2023/12/31 05:35:19;;;;;;;2.63;1.95;;;;;;;;;;6153084;23;20059;-89
2023/12/31 05:37:45;;;;;;;2.22;1.77;;;;;;;;;;6207285;23;20020;-89
2023/12/31 05:40:11;;;;;;;3.75;1.92;;;;;;;;;;6203005;22;20030;-89
2023/12/31 05:42:37;;;;;;;4.68;2.20;;;;;;;;;;6212029;22;20348;-89
2023/12/31 05:45:04;;;;;;;2.38;1.90;;;;;;;;;;6235287;22;20026;-90
2023/12/31 05:47:30;;;;;;;2.40;1.75;;;;;;;;;;6212312;22;20984;-90
2023/12/31 05:49:56;;;;;;;3.20;2.15;;;;;;;;;;6234391;22;20019;-90
2023/12/31 05:52:22;;;;;;;2.58;2.20;;;;;;;;;;6213403;22;20389;-90
2023/12/31 05:54:48;;;;;;;2.38;1.92;;;;;;;;;;6213275;22;20107;-90
2023/12/31 05:57:14;;;;;;;4.32;2.08;;;;;;;;;;6212605;22;20019;-90
2023/12/31 05:59:40;;;;;;;2.70;2.10;;;;;;;;;;6239367;22;20018;-90
2023/12/31 06:02:07;;;;;;;2.80;2.05;;;;;;;;;;6235598;22;20018;-88
2023/12/31 06:04:33;;;;;;;3.78;2.05;;;;;;;;;;6239443;22;20383;-89
2023/12/31 06:06:59;;;;;;;2.28;2.08;;;;;;;;;;6210625;22;20011;-90
2023/12/31 06:09:26;;;;;;;6.82;2.35;;;;;;;;;;6213304;22;20020;-90
2023/12/31 06:11:52;;;;;;;4.68;2.08;;;;;;;;;;6211872;22;20032;-89
2023/12/31 06:14:18;;;;;;;2.30;2.00;;;;;;;;;;6260862;22;20015;-90
2023/12/31 06:16:44;;;;;;;3.53;2.17;;;;;;;;;;6215251;22;20024;-90
2023/12/31 06:19:10;;;;;;;5.72;2.10;;;;;;;;;;6238248;22;20028;-89
2023/12/31 06:21:36;;;;;;;3.63;2.08;;;;;;;;;;6215094;22;20023;-89
2023/12/31 06:24:02;;;;;;;3.17;2.17;;;;;;;;;;6236428;22;20523;-90
2023/12/31 06:26:28;;;;;;;2.13;1.83;;;;;;;;;;6240732;22;20440;-90
2023/12/31 06:28:54;;;;;;;5.75;2.20;;;;;;;;;;6240886;22;20045;-90
2023/12/31 06:31:20;;;;;;;1.88;1.70;;;;;;;;;;6238045;22;20025;-91
2023/12/31 06:33:46;;;;;;;2.55;1.83;;;;;;;;;;6238940;22;20059;-90
2023/12/31 06:36:12;;;;;;;2.60;1.83;;;;;;;;;;6235054;22;20019;-90
2023/12/31 06:38:40;;;;;;;2.78;2.00;;;;;;;;;;6209393;22;20023;-89
2023/12/31 06:41:07;;;;;;;3.80;2.08;;;;;;;;;;6235030;22;20019;-90
2023/12/31 06:43:34;;;;;;;1.98;1.83;;;;;;;;;;6239108;22;20481;-89
2023/12/31 06:45:59;;;;;;;2.20;2.00;;;;;;;;;;6211079;22;20069;-89
2023/12/31 06:48:25;;;;;;;2.10;1.70;;;;;;;;;;6213364;22;20019;-89
2023/12/31 06:50:51;;;;;;;5.20;1.90;;;;;;;;;;6238671;22;20054;-89
2023/12/31 06:53:17;;;;;;;5.03;2.13;;;;;;;;;;6234451;22;20054;-89
2023/12/31 06:55:43;;;;;;;2.95;1.85;;;;;;;;;;6237527;22;20020;-89
2023/12/31 06:58:09;;;;;;;2.72;2.53;;;;;;;;;;6210469;22;20027;-89
2023/12/31 07:00:35;;;;;;;2.67;2.08;;;;;;;;;;6262886;22;20015;-90
2023/12/31 07:03:01;;;;;;;2.85;2.30;;;;;;;;;;6235876;22;20332;-90
2023/12/31 07:05:28;;;;;;;5.07;2.00;;;;;;;;;;6213212;22;20024;-90
2023/12/31 07:07:54;;;;;;;2.80;2.22;;;;;;;;;;6213108;22;20019;-90
2023/12/31 07:10:21;;;;;;;2.72;2.03;;;;;;;;;;6234518;22;20023;-89
2023/12/31 07:12:47;;;;;;;2.90;1.98;;;;;;;;;;6213621;22;20018;-90
2023/12/31 07:15:13;;;;;;;2.58;2.00;;;;;;;;;;6209270;22;20047;-90
2023/12/31 07:17:39;;;;;;;2.90;2.17;;;;;;;;;;6212258;22;20407;-90
2023/12/31 07:20:06;;;;;;;2.35;2.10;;;;;;;;;;6210458;22;20099;-90
2023/12/31 07:22:32;;;;;;;3.08;2.15;;;;;;;;;;6213607;22;20061;-89
2023/12/31 07:25:00;;;;;;;2.30;2.10;;;;;;;;;;6210905;22;20810;-90
2023/12/31 07:27:26;;;;;;;2.03;1.83;;;;;;;;;;6236678;22;20444;-89
2023/12/31 07:29:52;;;;;;;1.75;1.65;;;;;;;;;;6236317;22;20080;-90
2023/12/31 07:32:18;;;;;;;2.25;2.05;;;;;;;;;;6208779;22;20098;-90
2023/12/31 07:34:44;;;;;;;4.45;2.22;;;;;;;;;;6237013;22;20024;-89
2023/12/31 07:37:10;;;;;;;2.92;2.08;;;;;;;;;;6209549;22;20020;-89
2023/12/31 07:39:36;;;;;;;2.95;1.90;;;;;;;;;;6210718;22;20104;-90
2023/12/31 07:42:06;;;;;;;4.70;2.10;;;;;;;;;;6210483;22;20023;-90
2023/12/31 07:44:32;;;;;;;2.05;1.88;;;;;;;;;;6236532;22;20487;-90
2023/12/31 07:46:58;;;;;;;3.33;2.30;;;;;;;;;;6208759;22;20015;-90
2023/12/31 07:49:24;;;;;;;4.35;1.90;;;;;;;;;;6212739;22;20736;-90
2023/12/31 07:51:50;;;;;;;3.03;2.15;;;;;;;;;;6214726;22;20808;-90
2023/12/31 07:54:16;;;;;;;4.15;1.88;;;;;;;;;;6209262;22;20055;-90
2023/12/31 07:56:42;;;;;;;3.25;2.10;;;;;;;;;;6238626;22;20020;-89
2023/12/31 07:59:09;;;;;;;2.40;2.20;;;;;;;;;;6234414;22;20057;-90
2023/12/31 08:01:35;;;;;;;1.92;1.70;;;;;;;;;;6237581;22;20016;-89
2023/12/31 08:04:01;;;;;;;2.75;2.00;;;;;;;;;;6209672;22;20120;-90
2023/12/31 08:06:27;;;;;;;4.18;2.30;;;;;;;;;;6236437;22;20023;-89
2023/12/31 08:08:53;;;;;;;1.90;1.65;;;;;;;;;;6263149;22;20128;-89
2023/12/31 08:11:21;;;;;;;2.10;1.90;;;;;;;;;;6210470;22;20030;-89
2023/12/31 08:13:48;;;;;;;2.10;1.90;;;;;;;;;;6212289;22;20055;-90
2023/12/31 08:16:14;;;;;;;2.38;1.80;;;;;;;;;;6210089;22;20090;-90
2023/12/31 08:18:40;;;;;;;2.30;2.05;;;;;;;;;;6238105;22;20055;-90
2023/12/31 08:21:06;;;;;;;3.08;1.73;;;;;;;;;;6209505;22;20450;-90
2023/12/31 08:23:32;;;;;;;2.33;2.05;;;;;;;;;;6236529;22;20016;-90
2023/12/31 08:25:58;;;;;;;2.70;1.90;;;;;;;;;;6234148;22;20026;-90
2023/12/31 08:28:24;;;;;;;2.65;2.08;;;;;;;;;;6236955;22;20027;-90
2023/12/31 08:30:52;;;;;;;2.28;2.00;;;;;;;;;;6236682;22;20020;-90
2023/12/31 08:33:18;;;;;;;2.08;1.95;;;;;;;;;;6209777;22;20098;-90
2023/12/31 08:35:44;;;;;;;3.22;2.05;;;;;;;;;;6261467;22;20085;-90
2023/12/31 08:38:10;;;;;;;2.35;1.75;;;;;;;;;;6208725;22;20078;-90
2023/12/31 08:40:36;;;;;;;2.63;2.00;;;;;;;;;;6211928;22;20390;-90
2023/12/31 08:43:03;;;;;;;5.45;1.90;;;;;;;;;;6235273;22;20051;-90
2023/12/31 08:45:32;;;;;;;2.38;1.73;;;;;;;;;;6238126;22;20395;-90
2023/12/31 08:48:00;;;;;;;2.05;1.50;;;;;;;;;;6235688;22;20504;-90
2023/12/31 08:50:29;;;;;;;;;;;;;;;;;;6262652;22;20028;-90
2023/12/31 08:52:56;;;;;;;2.13;1.90;;;;;;;;;;6262642;22;19915;-91
2023/12/31 08:55:23;;;;;;;2.42;1.77;;;;;;;;;;6233758;22;20127;-89
2023/12/31 08:57:50;;;;;;;3.53;1.90;;;;;;;;;;6210162;22;20020;-90
2023/12/31 09:00:18;;;;;;;2.13;1.92;;;;;;;;;;6208786;22;20131;-90
2023/12/31 09:02:45;;;;;;;2.57;2.00;;;;;;;;;;6238295;22;20015;-90
2023/12/31 09:05:12;;;;;;;2.10;1.90;;;;;;;;;;6207051;22;20011;-90
2023/12/31 09:07:40;;;;;;;3.75;2.17;;;;;;;;;;6237965;22;20257;-90
2023/12/31 09:10:08;;;;;;;1.95;1.55;;;;;;;;;;6209407;22;20018;-91
2023/12/31 09:12:35;;;;;;;2.30;1.88;;;;;;;;;;6212667;22;20444;-90
2023/12/31 09:15:03;;;;;;;2.55;2.13;;;;;;;;;;6206496;22;20012;-90
2023/12/31 09:17:30;;;;;;;5.53;2.10;;;;;;;;;;6212668;22;20016;-90
2023/12/31 09:19:58;;;;;;;2.60;2.00;;;;;;;;;;6210390;22;20371;-90
2023/12/31 09:22:26;;;;;;;2.07;1.80;;;;;;;;;;6212812;22;20018;-90
2023/12/31 09:24:53;;;;;;;3.75;2.72;;;;;;;;;;6209445;22;20125;-91
2023/12/31 09:27:20;;;;;;;2.90;2.20;;;;;;;;;;6259151;22;20019;-90
2023/12/31 09:29:47;;;;;;;2.55;2.10;;;;;;;;;;6235252;22;20015;-90
2023/12/31 09:32:15;;;;;;;4.20;2.90;;;;;;;;;;6206983;22;20047;-91
2023/12/31 09:34:42;;;;;;;3.67;2.30;;;;;;;;;;6209164;22;20028;-90
2023/12/31 09:37:09;;;;;;;5.15;2.15;;;;;;;;;;6233253;22;20023;-90
2023/12/31 09:39:37;;;;;;;3.55;2.38;;;;;;;;;;6210213;22;20020;-90
2023/12/31 09:42:07;;;;;;;4.17;2.63;;;;;;;;;;6207678;22;20016;-91
2023/12/31 09:44:35;;;;;;;2.75;2.28;;;;;;;;;;6234435;22;20309;-89
2023/12/31 09:47:58;;;;;;;4.07;2.40;;;;;;;;;;6232519;22;20026;-90
2023/12/31 09:50:49;;;;;;;;;;;;;;;;;;6130751;23;20143;-91
2023/12/31 09:53:46;;;;;;;2.22;2.03;;;;;;;;;;6112282;23;21072;-91
2023/12/31 09:56:45;;;;;;;;;;;;;;;;;;;;;
2023/12/31 10:00:06;;;;;;;;;;;;;;;;;;;;;
2023/12/31 10:02:46;;;;;;;3.90;2.42;;;;;;;;;;6055413;23;20018;-91
2023/12/31 10:05:30;;;;;;;2.67;2.33;;;;;;;;;;6090225;23;20454;-90
2023/12/31 10:08:05;;;;;;;3.40;2.35;;;;;;;;;;6135183;23;20025;-90
2023/12/31 10:10:38;;;;;;;3.40;2.10;;;;;;;;;;6135104;23;20104;-90
2023/12/31 10:16:21;;;;;;;;;;;;;;;;;;;;;
2023/12/31 10:18:56;;;;;;;3.45;2.83;;;;;;;;;;6204933;23;20027;-90
2023/12/31 10:21:48;;;;;;;4.15;2.67;;;;;;;;;;6180905;23;20570;-90
2023/12/31 10:24:48;;;;;;;2.90;2.38;;;;;;;;;;6151083;23;20042;-91
2023/12/31 10:27:48;;;;;;;2.97;2.53;;;;;;;;;;6170832;23;20012;-90
2023/12/31 10:34:18;;;;;;;7.82;5.07;;;;;;;;;;6195827;23;20047;-90
2023/12/31 10:37:23;;;;;;;7.95;6.70;;;;;;;;;;6207247;23;20062;-90
2023/12/31 10:43:27;;;;;;;3.90;2.95;;;;;;;;;;6206683;23;20054;-90
2023/12/31 10:46:05;;;;;;;3.08;2.70;;;;;;;;;;6205073;23;20128;-90
2023/12/31 10:48:42;;;;;;;2.38;2.10;;;;;;;;;;6156888;23;20020;-90
2023/12/31 10:51:19;;;;;;;2.42;2.22;;;;;;;;;;6180207;23;20692;-89
2023/12/31 10:53:57;;;;;;;3.63;2.42;;;;;;;;;;6157112;23;20135;-90
2023/12/31 10:56:30;;;;;;;4.50;2.30;;;;;;;;;;6208343;22;20098;-89
2023/12/31 11:02:50;;;;;;;;;;;;;;;;;;;;;
2023/12/31 11:47:29;;;;;;;;;;;;;;;;;;;;;
2023/12/31 12:22:02;;;;;;;;;;;;;;;;;;;;;
2023/12/31 12:28:41;;;;;;;;;;;;;;;;;;;;;
2023/12/31 12:31:57;;;;;;;;;;;;;;;;;;;;;
2023/12/31 12:34:49;;;;;;;0.75;0.75;;;;;;;;;;6088652;23;20025;-83
2023/12/31 12:37:57;;;;;;;0.60;0.60;;;;;;;;;;5990063;23;20122;-83
2023/12/31 12:41:00;;;;;;;0.70;0.70;;;;;;;;;;6001236;23;20485;-83
2023/12/31 12:47:24;;;;;;;1.67;0.90;;;;;;;;;;5912002;23;20111;-83
2023/12/31 12:50:29;;;;;;;;;;;;;;;;;;;;;
2023/12/31 13:03:20;;;;;;;2.85;2.00;;;;;;;;;;6032447;23;20023;-82
2023/12/31 13:13:26;;;;;;;;;;;;;;;;;;;;;
2023/12/31 13:27:24;;;;;;;2.90;1.60;;;;;;;;;;6046607;23;20093;-83
2023/12/31 13:30:48;;;;;;;;;;;;;;;;;;;;;
2023/12/31 13:34:23;;;;;;;;;;;;;;;;;;;;;
2023/12/31 13:40:56;;;;;;;;;;;;;;;;;;;;;
2023/12/31 13:47:18;;;;;;;2.65;1.70;;;;;;;;;;6036548;23;20021;-83
2023/12/31 14:03:42;;;;;;;2.97;1.33;;;;;;;;;;5948101;23;20972;-85
2023/12/31 14:06:25;;;;;;;1.80;1.42;;;;;;;;;;5995975;23;20024;-86
2023/12/31 14:12:36;;;;;;;;;;;;;;;;;;;;;
2023/12/31 14:15:32;;;;;;;3.53;1.73;;;;;;;;;;6127096;23;20013;-86
2023/12/31 14:18:47;;;;;;;4.22;1.70;;;;;;;;;;6052849;23;20033;-86
2023/12/31 14:45:51;;;;;;;4.03;1.83;;;;;;;;;;6298065;22;20076;-88
2023/12/31 14:48:17;;;;;;;5.80;2.88;;;;;;;;;;6266333;22;20023;-88
2023/12/31 14:50:43;;;;;;;6.20;2.88;;;;;;;;;;6266424;22;20018;-88
2023/12/31 14:53:10;;;;;;;5.97;2.60;;;;;;;;;;6217375;22;20340;-88
2023/12/31 14:55:36;;;;;;;5.35;2.40;;;;;;;;;;6219405;22;20452;-88
2023/12/31 14:58:03;;;;;;;5.30;1.77;;;;;;;;;;6218429;22;20390;-89
2023/12/31 15:00:29;;;;;;;4.70;2.60;;;;;;;;;;6219560;22;20332;-89
2023/12/31 15:02:55;;;;;;;5.68;2.03;;;;;;;;;;6245860;22;20460;-89
2023/12/31 15:05:21;;;;;;;3.17;2.00;;;;;;;;;;6268818;22;20030;-88
2023/12/31 15:07:47;;;;;;;5.10;1.85;;;;;;;;;;6219154;22;20022;-89
2023/12/31 15:10:13;;;;;;;7.00;1.92;;;;;;;;;;6242138;22;20015;-88
2023/12/31 15:12:39;;;;;;;3.90;1.50;;;;;;;;;;6218704;22;20141;-89
2023/12/31 15:15:07;;;;;;;2.58;1.80;;;;;;;;;;6240133;22;20023;-88
2023/12/31 15:17:33;;;;;;;3.70;1.50;;;;;;;;;;6262453;22;20069;-88
2023/12/31 15:19:59;;;;;;;4.68;1.58;;;;;;;;;;6212554;22;20020;-88
2023/12/31 15:22:25;;;;;;;3.47;2.40;;;;;;;;;;6216276;22;20083;-89
2023/12/31 15:24:51;;;;;;;6.00;2.55;;;;;;;;;;6214053;22;20463;-89
2023/12/31 15:27:17;;;;;;;2.60;1.80;;;;;;;;;;6211548;22;20062;-88
2023/12/31 15:29:43;;;;;;;3.03;1.63;;;;;;;;;;6214348;22;20024;-88
2023/12/31 15:32:09;;;;;;;4.32;1.70;;;;;;;;;;6212040;22;20021;-89
2023/12/31 15:34:35;;;;;;;2.28;1.42;;;;;;;;;;6240044;22;20018;-88
2023/12/31 15:37:08;;;;;;;3.05;1.90;;;;;;;;;;6236311;22;20349;-88
2023/12/31 15:39:34;;;;;;;2.70;2.35;;;;;;;;;;6216185;22;20083;-88
2023/12/31 15:42:00;;;;;;;4.85;2.67;;;;;;;;;;6186901;22;20455;-89
2023/12/31 15:44:26;;;;;;;3.95;2.42;;;;;;;;;;6189945;22;20027;-88
2023/12/31 15:46:52;;;;;;;4.40;2.30;;;;;;;;;;6215063;22;20047;-88
2023/12/31 15:49:18;;;;;;;3.30;2.42;;;;;;;;;;6210784;22;20677;-88
2023/12/31 15:51:44;;;;;;;4.40;2.72;;;;;;;;;;6190590;22;20023;-88
2023/12/31 15:54:10;;;;;;;6.40;2.58;;;;;;;;;;6210514;22;20031;-89
2023/12/31 15:56:36;;;;;;;7.65;4.35;;;;;;;;;;6239849;22;20019;-88
2023/12/31 15:59:02;;;;;;;7.95;3.78;;;;;;;;;;6210451;22;20073;-88
2023/12/31 16:01:28;;;;;;;4.88;2.65;;;;;;;;;;6212356;22;20536;-88
2023/12/31 16:03:57;;;;;;;4.47;2.95;;;;;;;;;;6209919;22;20518;-89
2023/12/31 16:06:23;;;;;;;7.32;3.53;;;;;;;;;;6189620;22;20030;-88
2023/12/31 16:08:49;;;;;;;4.38;2.90;;;;;;;;;;6266955;22;20668;-88
2023/12/31 16:11:16;;;;;;;4.65;3.28;;;;;;;;;;6211641;22;20471;-89
2023/12/31 16:13:42;;;;;;;6.43;3.60;;;;;;;;;;6213338;22;20020;-87
2023/12/31 16:16:08;;;;;;;5.15;2.80;;;;;;;;;;6210926;22;20041;-88
2023/12/31 16:18:34;;;;;;;8.45;4.57;;;;;;;;;;6214083;22;20518;-87
2023/12/31 16:21:01;;;;;;;6.95;3.38;;;;;;;;;;6236131;22;20019;-88
2023/12/31 16:23:27;;;;;;;8.25;4.18;;;;;;;;;;6212262;22;20016;-88
2023/12/31 16:25:53;;;;;;;5.57;3.42;;;;;;;;;;6189204;22;20019;-88
2023/12/31 16:28:19;;;;;;;8.45;4.68;;;;;;;;;;6188497;22;20012;-88
2023/12/31 16:30:45;;;;;;;8.20;4.78;;;;;;;;;;6213180;22;20015;-88
2023/12/31 16:33:11;;;;;;;8.13;4.40;;;;;;;;;;6186884;22;20023;-88
2023/12/31 16:35:39;;;;;;;5.32;4.10;;;;;;;;;;6239256;22;20389;-88
2023/12/31 16:38:05;;;;;;;5.95;3.30;;;;;;;;;;6208940;22;20057;-87
2023/12/31 16:40:32;;;;;;;8.32;5.45;;;;;;;;;;6206810;22;20022;-88
2023/12/31 16:42:59;;;;;;;9.25;4.55;;;;;;;;;;6205576;22;20007;-88
2023/12/31 16:45:25;;;;;;;13.00;4.30;;;;;;;;;;6204565;22;20032;-88
2023/12/31 16:47:52;;;;;;;9.68;3.72;;;;;;;;;;6208289;22;20094;-88
2023/12/31 16:50:18;;;;;;;6.10;4.15;;;;;;;;;;6207029;22;20019;-87
2023/12/31 16:52:45;;;;;;;12.02;5.95;;;;;;;;;;6207820;22;20019;-89
2023/12/31 17:03:23;;;;;;;;;;;;;;;;;;;;;
2023/12/31 17:06:16;;;;;;;12.10;5.55;;;;;;;;;;6276944;22;20050;-87
2023/12/31 17:08:53;;;;;;;10.57;5.53;;;;;;;;;;6251444;22;20338;-88
2023/12/31 17:11:44;;;;;;;10.57;5.03;;;;;;;;;;6246503;22;20015;-87
2023/12/31 17:14:44;;;;;;;;;;;;;;;;;;;;;
2023/12/31 17:17:34;;;;;;;13.60;7.38;;;;;;;;;;6275910;22;20549;-88
2023/12/31 17:23:00;;;;;;;37.40;18.27;;;;;;;;;;6276223;22;20390;-88
2023/12/31 17:25:35;;;;;;;17.65;9.82;;;;;;;;;;6246806;22;20046;-87
2023/12/31 17:28:04;;;;;;;12.15;6.53;;;;;;;;;;6244782;22;20022;-87
2023/12/31 17:33:37;;;;;;;8.90;4.32;;;;;;;;;;6275732;22;20515;-87
2023/12/31 17:36:13;;;;;;;7.55;5.07;;;;;;;;;;6249925;22;20014;-87
2023/12/31 17:41:52;;;;;;;8.88;5.57;;;;;;;;;;6277886;22;20544;-88
2023/12/31 17:44:31;;;;;;;;;;;;;;;;;;;;;
2023/12/31 17:47:10;;;;;;;18.20;5.82;;;;;;;;;;6274186;22;20014;-87
2023/12/31 17:49:40;;;;;;;10.80;4.70;;;;;;;;;;6275849;22;20025;-87
2023/12/31 17:52:11;;;;;;;11.43;5.35;;;;;;;;;;6248737;22;20079;-87
2023/12/31 17:54:38;;;;;;;13.70;6.88;;;;;;;;;;6274329;22;20025;-87
2023/12/31 17:57:11;;;;;;;13.55;7.60;;;;;;;;;;6274886;22;20347;-87
2023/12/31 17:59:37;;;;;;;9.93;4.45;;;;;;;;;;6249195;22;20075;-86
2023/12/31 18:02:06;;;;;;;14.15;5.88;;;;;;;;;;6273369;22;20026;-87
2023/12/31 18:04:36;;;;;;;16.80;7.90;;;;;;;;;;6248959;22;20019;-87
2023/12/31 18:07:02;;;;;;;8.27;5.28;;;;;;;;;;6248417;22;20014;-87
2023/12/31 18:09:28;;;;;;;11.27;4.85;;;;;;;;;;6248257;22;20117;-87
2023/12/31 18:11:55;;;;;;;30.25;17.20;;;;;;;;;;6274707;22;20072;-87
2023/12/31 18:14:21;;;;;;;12.00;5.50;;;;;;;;;;6247860;22;20015;-87
2023/12/31 18:16:47;;;;;;;14.38;7.68;;;;;;;;;;6274709;22;20049;-87
2023/12/31 18:19:13;;;;;;;15.30;7.15;;;;;;;;;;6271702;22;20019;-87
2023/12/31 18:21:46;;;;;;;13.35;5.90;;;;;;;;;;6249146;22;20014;-87
2023/12/31 18:24:12;;;;;;;18.20;7.97;;;;;;;;;;6249496;22;20128;-87
2023/12/31 18:26:38;;;;;;;14.30;6.72;;;;;;;;;;6249433;22;20041;-87
2023/12/31 18:29:06;;;;;;;26.50;16.67;;;;;;;;;;6297543;22;20486;-87